Time;durP1;ratioP1;P1;durP2;ratioP2;P2;SDS_P1;SDS_P2;PMS_P1;PMS_P2;Temp;Humidity;BMP_temperature;BMP_pressure;BME280_temperature;BME280_humidity;BME280_pressure;Samples;Min_cycle;Max_cycle;Signal;HPM_P1;HPM_P2
2021/12/09 00:01:50;;;;;;;0.10;0.10;;;0.80;99.90;226.50;231333.00;;;;5018479;28;20231;-75
2021/12/09 00:04:27;;;;;;;0.10;0.10;;;0.80;99.90;226.50;231333.00;;;;5017682;28;20619;-74
2021/12/09 00:06:55;;;;;;;0.10;0.10;;;0.80;99.90;226.50;231333.00;;;;5018828;28;20610;-73
2021/12/09 00:09:23;;;;;;;0.10;0.10;;;0.80;99.90;226.50;231333.00;;;;5018830;28;20732;-74
2021/12/09 00:11:52;;;;;;;0.10;0.10;;;0.80;99.90;226.50;231333.00;;;;5017706;28;20223;-74
2021/12/09 00:14:24;;;;;;;0.15;0.15;;;0.80;99.90;226.50;231333.00;;;;5015279;28;20630;-74
2021/12/09 00:16:54;;;;;;;0.20;0.20;;;0.80;99.90;226.50;231333.00;;;;5019154;28;20257;-73
2021/12/09 00:19:24;;;;;;;0.10;0.10;;;0.90;99.90;226.50;231333.00;;;;5018695;28;20246;-73
2021/12/09 00:21:52;;;;;;;0.10;0.10;;;0.90;99.90;226.50;231333.00;;;;5017700;28;20650;-73
2021/12/09 00:24:20;;;;;;;0.10;0.10;;;0.90;99.90;226.50;158566.00;;;;5016766;28;20191;-72
2021/12/09 00:26:49;;;;;;;0.10;0.10;;;0.90;99.90;226.50;231333.00;;;;5018185;28;20199;-72
2021/12/09 00:29:18;;;;;;;0.10;0.10;;;0.90;99.90;226.50;231333.00;;;;5018632;28;20274;-72
2021/12/09 00:31:47;;;;;;;0.10;0.10;;;0.90;99.90;226.50;158719.00;;;;5018441;28;20215;-72
2021/12/09 00:34:16;;;;;;;0.20;0.20;;;0.80;99.90;226.50;231333.00;;;;5017964;28;20203;-72
2021/12/09 00:36:57;;;;;;;0.10;0.10;;;0.90;99.90;226.50;231333.00;;;;5018805;28;20195;-75
2021/12/09 00:39:25;;;;;;;0.10;0.10;;;0.90;99.90;226.50;231333.00;;;;5017899;28;20218;-75
2021/12/09 00:41:53;;;;;;;0.10;0.10;;;0.80;99.90;226.50;231333.00;;;;5016882;28;20245;-75
2021/12/09 00:44:21;;;;;;;0.20;0.20;;;0.80;99.90;226.50;231333.00;;;;5017712;28;20195;-72
2021/12/09 00:46:49;;;;;;;0.10;0.10;;;0.80;99.90;226.50;231333.00;;;;5019644;28;20190;-72
2021/12/09 00:49:17;;;;;;;0.10;0.10;;;0.80;99.90;226.50;231333.00;;;;5022266;28;20214;-72
2021/12/09 00:51:47;;;;;;;0.10;0.10;;;0.80;99.90;226.50;231333.00;;;;5020111;28;20269;-73
2021/12/09 00:54:14;;;;;;;0.10;0.10;;;0.70;99.90;226.50;231333.00;;;;5004243;28;20252;-73
2021/12/09 00:56:42;;;;;;;0.10;0.10;;;0.80;99.90;226.50;231333.00;;;;5021666;28;20195;-73
2021/12/09 00:59:10;;;;;;;0.10;0.10;;;0.80;99.90;226.50;231333.00;;;;5019813;28;20258;-73
2021/12/09 01:01:38;;;;;;;0.10;0.10;;;0.80;99.90;226.50;231333.00;;;;5021921;28;20230;-74
2021/12/09 01:04:07;;;;;;;0.10;0.10;;;0.80;99.90;226.50;231333.00;;;;5022049;28;20214;-73
2021/12/09 01:06:35;;;;;;;0.10;0.10;;;0.70;99.90;226.50;231333.00;;;;5021091;28;20599;-77
2021/12/09 01:09:05;;;;;;;0.10;0.10;;;0.70;99.90;226.50;231333.00;;;;5021644;28;20192;-77
2021/12/09 01:11:34;;;;;;;0.10;0.10;;;0.70;99.90;226.50;231333.00;;;;5022461;28;20227;-74
2021/12/09 01:14:02;;;;;;;0.10;0.10;;;0.60;99.90;226.50;231333.00;;;;5015889;28;20205;-76
2021/12/09 01:16:30;;;;;;;0.10;0.10;;;0.60;99.90;226.50;231333.00;;;;5023970;28;20195;-75
2021/12/09 01:18:59;;;;;;;0.10;0.10;;;0.60;99.90;226.50;231333.00;;;;5021246;28;20196;-72
2021/12/09 01:21:27;;;;;;;0.10;0.10;;;0.60;99.90;226.50;231333.00;;;;5022565;28;20235;-73
2021/12/09 01:23:55;;;;;;;0.10;0.10;;;0.60;99.90;226.50;231333.00;;;;5020943;28;20677;-73
2021/12/09 01:26:26;;;;;;;0.20;0.20;;;0.50;99.90;226.50;231333.00;;;;5003504;28;20204;-73
2021/12/09 01:29:01;;;;;;;0.10;0.10;;;0.50;99.90;226.50;231333.00;;;;5021928;28;20199;-74
2021/12/09 01:31:33;;;;;;;0.10;0.10;;;0.50;99.90;226.50;231333.00;;;;5020744;28;20634;-72
2021/12/09 01:34:03;;;;;;;0.10;0.10;;;0.50;99.90;226.50;231333.00;;;;5020772;28;20299;-72
2021/12/09 01:36:36;;;;;;;0.10;0.10;;;0.50;99.90;226.50;231333.00;;;;5022312;28;20180;-72
2021/12/09 01:39:05;;;;;;;0.10;0.10;;;0.50;99.90;226.50;231333.00;;;;5020028;28;20196;-75
2021/12/09 01:41:34;;;;;;;0.13;0.13;;;0.40;99.90;226.50;231333.00;;;;5022128;28;20234;-75
2021/12/09 01:44:02;;;;;;;0.20;0.20;;;0.40;99.90;226.50;231333.00;;;;5020397;28;20681;-74
2021/12/09 01:46:30;;;;;;;0.10;0.10;;;0.50;99.90;226.50;231333.00;;;;5021159;28;20732;-72
2021/12/09 01:48:59;;;;;;;0.10;0.10;;;0.50;99.90;226.50;231333.00;;;;5022174;28;20229;-73
2021/12/09 01:51:27;;;;;;;0.20;0.20;;;0.50;99.90;226.50;231333.00;;;;5020894;28;20701;-72
2021/12/09 01:53:55;;;;;;;0.10;0.10;;;0.40;99.90;226.50;231333.00;;;;5020798;28;20191;-72
2021/12/09 01:56:26;;;;;;;0.10;0.10;;;0.40;99.90;226.50;231333.00;;;;5021884;28;20623;-73
2021/12/09 01:58:58;;;;;;;0.10;0.10;;;0.40;99.90;226.50;231333.00;;;;5020702;28;20245;-73
2021/12/09 02:01:27;;;;;;;0.10;0.10;;;0.40;99.90;226.50;231333.00;;;;5020173;28;20699;-73
2021/12/09 02:03:56;;;;;;;0.10;0.10;;;0.50;99.90;226.50;231333.00;;;;5020764;28;20223;-73
2021/12/09 02:06:27;;;;;;;0.20;0.20;;;0.50;99.90;226.50;231333.00;;;;5019799;28;20469;-75
2021/12/09 02:08:55;;;;;;;0.20;0.20;;;0.50;99.90;226.50;231333.00;;;;5020171;28;20207;-75
2021/12/09 02:11:24;;;;;;;0.10;0.10;;;0.40;99.90;226.50;231333.00;;;;5022070;28;20901;-74
2021/12/09 02:13:56;;;;;;;0.10;0.10;;;0.40;99.90;226.50;231333.00;;;;5020394;28;20191;-72
2021/12/09 02:16:26;;;;;;;0.13;0.13;;;0.40;99.90;226.50;231333.00;;;;5022110;28;20210;-72
2021/12/09 02:18:55;;;;;;;0.10;0.10;;;0.40;99.90;226.50;158203.00;;;;5019657;28;20214;-73
2021/12/09 02:21:27;;;;;;;0.20;0.20;;;0.50;99.90;226.50;231333.00;;;;5022094;28;20220;-76
2021/12/09 02:23:59;;;;;;;0.20;0.20;;;0.50;99.90;226.50;231333.00;;;;5019573;28;20230;-73
2021/12/09 02:26:30;;;;;;;0.10;0.10;;;0.40;99.90;226.50;231333.00;;;;5020335;28;20191;-73
2021/12/09 02:29:00;;;;;;;0.10;0.10;;;0.40;99.90;226.50;231333.00;;;;5020171;28;20696;-73
2021/12/09 02:31:30;;;;;;;0.10;0.10;;;0.50;99.90;226.50;231333.00;;;;5016911;28;20265;-73
2021/12/09 02:33:59;;;;;;;0.10;0.10;;;0.60;99.90;226.50;231333.00;;;;5020637;28;20235;-75
2021/12/09 02:36:30;;;;;;;0.10;0.10;;;0.60;99.90;226.50;231333.00;;;;5012738;28;20223;-72
2021/12/09 02:38:58;;;;;;;0.10;0.10;;;0.60;99.90;226.50;231333.00;;;;5018464;28;20192;-72
2021/12/09 02:41:27;;;;;;;0.10;0.10;;;0.60;99.90;226.50;231333.00;;;;5017991;28;20227;-75
2021/12/09 02:44:01;;;;;;;0.10;0.10;;;0.50;99.90;226.50;231333.00;;;;5017717;28;20191;-72
2021/12/09 02:46:35;;;;;;;0.13;0.13;;;0.50;99.90;226.50;231333.00;;;;5017026;28;20230;-75
2021/12/09 02:49:06;;;;;;;0.10;0.10;;;0.50;99.90;226.50;231333.00;;;;5016974;28;20266;-73
2021/12/09 02:51:37;;;;;;;0.10;0.10;;;0.50;99.90;226.50;231333.00;;;;5017643;28;20219;-73
2021/12/09 02:54:10;;;;;;;0.20;0.20;;;0.50;99.90;226.50;231333.00;;;;5018790;28;20196;-73
2021/12/09 02:56:39;;;;;;;0.10;0.10;;;0.60;99.90;226.50;231333.00;;;;5019190;28;20254;-73
2021/12/09 02:59:08;;;;;;;0.10;0.10;;;0.60;99.90;226.50;231333.00;;;;5020140;28;20217;-76
2021/12/09 03:01:47;;;;;;;0.10;0.10;;;0.60;99.90;226.50;231333.00;;;;5013942;28;20227;-76
2021/12/09 03:04:17;;;;;;;0.10;0.10;;;0.60;99.90;226.50;231333.00;;;;5024667;28;20206;-75
2021/12/09 03:06:48;;;;;;;0.10;0.10;;;0.60;99.90;226.50;231333.00;;;;5020007;28;20231;-74
2021/12/09 03:09:20;;;;;;;0.10;0.10;;;0.60;99.90;226.50;231333.00;;;;5019218;28;20219;-74
2021/12/09 03:11:54;;;;;;;0.10;0.10;;;0.60;99.90;226.50;231333.00;;;;5018622;28;20220;-71
2021/12/09 03:14:24;;;;;;;0.20;0.20;;;0.60;99.90;226.50;231333.00;;;;5014873;28;20265;-72
2021/12/09 03:16:53;;;;;;;0.10;0.10;;;0.60;99.90;226.50;231333.00;;;;5011095;28;20222;-72
2021/12/09 03:19:21;;;;;;;0.10;0.10;;;0.50;99.90;226.50;231333.00;;;;5011664;28;20196;-72
2021/12/09 03:21:55;;;;;;;0.10;0.10;;;0.60;99.90;226.50;231333.00;;;;5011594;28;20216;-72
2021/12/09 03:24:24;;;;;;;0.10;0.10;;;0.60;99.90;226.50;231333.00;;;;5012233;28;20188;-72
2021/12/09 03:26:56;;;;;;;0.10;0.10;;;0.60;99.90;226.50;231333.00;;;;5011471;28;20669;-71
2021/12/09 03:29:28;;;;;;;0.10;0.10;;;0.50;99.90;226.50;231333.00;;;;5012279;28;20223;-73
2021/12/09 03:32:01;;;;;;;0.10;0.10;;;0.50;99.90;226.50;231333.00;;;;5011843;28;20219;-73
2021/12/09 03:34:32;;;;;;;0.20;0.20;;;0.50;99.90;226.50;231333.00;;;;5011086;28;20669;-73
2021/12/09 03:37:09;;;;;;;0.10;0.10;;;0.50;99.90;226.50;231333.00;;;;5011305;28;20192;-73
2021/12/09 03:39:40;;;;;;;0.10;0.10;;;0.50;99.90;226.50;231333.00;;;;5007164;28;20602;-73
2021/12/09 03:42:11;;;;;;;0.10;0.10;;;0.50;99.90;226.50;231333.00;;;;5011415;28;20231;-73
2021/12/09 03:44:40;;;;;;;0.10;0.10;;;0.60;99.90;226.50;231333.00;;;;5005374;28;20192;-73
2021/12/09 03:47:12;;;;;;;0.20;0.20;;;0.60;99.90;226.50;231333.00;;;;5011339;28;20200;-72
2021/12/09 03:49:42;;;;;;;0.10;0.10;;;0.60;99.90;226.50;231333.00;;;;5008494;28;20282;-72
2021/12/09 03:52:13;;;;;;;0.10;0.10;;;0.70;99.90;226.50;231333.00;;;;5010858;28;20219;-73
2021/12/09 03:54:43;;;;;;;0.10;0.10;;;0.70;99.90;226.50;231333.00;;;;5009651;28;20207;-72
2021/12/09 03:57:13;;;;;;;0.10;0.10;;;0.70;99.90;226.50;231333.00;;;;5011427;28;20254;-72
2021/12/09 03:59:43;;;;;;;0.10;0.10;;;0.70;99.90;226.50;231333.00;;;;5011599;28;20559;-72
2021/12/09 04:02:13;;;;;;;0.10;0.10;;;0.70;99.90;226.50;231333.00;;;;5058280;22;20212;-76
2021/12/09 04:04:41;;;;;;;0.10;0.10;;;0.70;99.90;226.50;231333.00;;;;5012759;28;20191;-76
2021/12/09 04:07:11;;;;;;;0.10;0.10;;;0.70;99.90;226.50;231333.00;;;;5014245;28;20196;-75
2021/12/09 04:09:40;;;;;;;0.10;0.10;;;0.70;99.90;226.50;231333.00;;;;5002379;28;20258;-76
2021/12/09 04:12:11;;;;;;;0.10;0.10;;;0.70;99.90;226.50;231333.00;;;;5007892;28;20514;-75
2021/12/09 04:14:39;;;;;;;0.10;0.10;;;0.70;99.90;226.50;231333.00;;;;5007326;28;20188;-76
2021/12/09 04:17:07;;;;;;;0.10;0.10;;;0.80;99.90;226.50;231333.00;;;;5022977;28;20200;-75
2021/12/09 04:19:36;;;;;;;0.10;0.10;;;0.70;99.90;226.50;231333.00;;;;5004019;28;20195;-75
2021/12/09 04:22:04;;;;;;;0.10;0.10;;;0.70;99.90;226.50;231333.00;;;;5003200;28;20242;-76
2021/12/09 04:24:34;;;;;;;0.20;0.20;;;0.80;99.90;226.50;231333.00;;;;5009499;28;20200;-76
2021/12/09 04:27:01;;;;;;;0.20;0.20;;;0.70;99.90;226.50;231333.00;;;;5011046;28;20192;-77
2021/12/09 04:29:29;;;;;;;0.10;0.10;;;0.70;99.90;226.50;231333.00;;;;5003811;28;20223;-77
2021/12/09 04:31:57;;;;;;;0.15;0.15;;;0.70;99.90;226.50;231333.00;;;;5019281;28;20216;-76
2021/12/09 04:34:25;;;;;;;0.10;0.10;;;0.80;99.90;226.50;231333.00;;;;5010986;28;20200;-76
2021/12/09 04:36:54;;;;;;;0.10;0.10;;;0.70;99.90;226.50;231333.00;;;;5038783;28;20196;-76
2021/12/09 04:39:22;;;;;;;0.10;0.10;;;0.70;99.90;226.50;231333.00;;;;5030466;28;20226;-76
2021/12/09 04:41:54;;;;;;;0.20;0.20;;;0.80;99.90;226.50;231333.00;;;;5020439;28;20211;-77
2021/12/09 04:44:22;;;;;;;0.10;0.10;;;0.80;99.90;226.50;231333.00;;;;5003210;28;20197;-76
2021/12/09 04:46:50;;;;;;;0.20;0.20;;;0.80;99.90;226.50;231333.00;;;;5003687;28;20259;-76
2021/12/09 04:49:19;;;;;;;0.10;0.10;;;0.90;99.90;226.50;231333.00;;;;5004089;28;20242;-75
2021/12/09 04:51:47;;;;;;;0.10;0.10;;;0.90;99.90;226.50;231333.00;;;;5012767;28;20584;-75
2021/12/09 04:54:15;;;;;;;0.10;0.10;;;0.80;99.90;226.50;231333.00;;;;5006905;28;20234;-75
2021/12/09 04:56:43;;;;;;;0.10;0.10;;;0.80;99.90;226.50;231333.00;;;;5011362;28;20191;-75
2021/12/09 04:59:13;;;;;;;0.13;0.13;;;0.90;99.90;226.50;231333.00;;;;4992625;28;20208;-74
2021/12/09 05:01:47;;;;;;;0.10;0.10;;;0.80;99.90;226.50;231333.00;;;;4993376;28;20270;-75
2021/12/09 05:04:15;;;;;;;0.15;0.15;;;0.90;99.90;226.50;231333.00;;;;4993561;28;20534;-74
2021/12/09 05:06:43;;;;;;;0.10;0.10;;;0.90;99.90;226.50;231333.00;;;;5000401;28;20741;-75
2021/12/09 05:09:16;;;;;;;0.10;0.10;;;0.90;99.90;226.50;231333.00;;;;4993279;28;20391;-75
2021/12/09 05:11:51;;;;;;;0.10;0.10;;;0.80;99.90;226.50;231333.00;;;;5000155;28;20220;-75
2021/12/09 05:14:23;;;;;;;0.10;0.10;;;0.80;99.90;226.50;231333.00;;;;4994693;28;20254;-75
2021/12/09 05:16:55;;;;;;;0.10;0.10;;;0.80;99.90;226.50;231333.00;;;;4994591;28;20739;-75
2021/12/09 05:19:24;;;;;;;0.10;0.10;;;0.90;99.90;226.50;231333.00;;;;5005667;28;20224;-75
2021/12/09 05:21:54;;;;;;;0.20;0.20;;;0.90;99.90;226.50;231333.00;;;;5014232;28;20208;-75
2021/12/09 05:24:22;;;;;;;0.20;0.20;;;0.80;99.90;226.50;231333.00;;;;4997368;28;20200;-75
2021/12/09 05:26:53;;;;;;;0.10;0.10;;;0.70;99.90;226.50;231333.00;;;;4990365;28;20239;-75
2021/12/09 05:29:30;;;;;;;0.10;0.10;;;0.70;99.90;226.50;231333.00;;;;4981517;28;20183;-75
2021/12/09 05:32:10;;;;;;;0.20;0.20;;;0.70;99.90;226.50;231333.00;;;;5003482;28;20436;-74
2021/12/09 05:34:44;;;;;;;0.10;0.10;;;0.80;99.90;226.50;231333.00;;;;5000622;28;20200;-74
2021/12/09 05:37:17;;;;;;;0.10;0.10;;;0.80;99.90;226.50;231333.00;;;;5009604;28;20200;-74
2021/12/09 05:39:46;;;;;;;0.17;0.17;;;0.70;99.90;226.50;231333.00;;;;4991304;28;20756;-75
2021/12/09 05:42:18;;;;;;;0.10;0.10;;;0.70;99.90;226.50;231333.00;;;;4998491;28;20232;-74
2021/12/09 05:44:48;;;;;;;0.10;0.10;;;0.70;99.90;226.50;231333.00;;;;4991564;28;20263;-75
2021/12/09 05:47:17;;;;;;;0.10;0.10;;;0.70;99.90;226.50;231333.00;;;;5009374;28;20812;-75
2021/12/09 05:49:49;;;;;;;0.15;0.15;;;0.80;99.90;226.50;231333.00;;;;5003410;28;20202;-75
2021/12/09 05:52:17;;;;;;;0.10;0.10;;;0.80;99.90;226.50;231333.00;;;;5004896;28;20713;-75
2021/12/09 05:54:46;;;;;;;0.10;0.10;;;0.70;99.90;226.50;231333.00;;;;4995799;28;20205;-75
2021/12/09 05:57:15;;;;;;;0.10;0.10;;;0.80;99.90;226.50;231333.00;;;;5006533;28;20560;-72
2021/12/09 05:59:46;;;;;;;0.10;0.10;;;0.70;99.90;226.50;231333.00;;;;4994019;28;20609;-73
2021/12/09 06:02:17;;;;;;;0.10;0.10;;;0.70;99.90;226.50;231333.00;;;;5004229;28;20277;-73
2021/12/09 06:04:46;;;;;;;0.10;0.10;;;0.70;99.90;226.50;231333.00;;;;5006310;28;20608;-72
2021/12/09 06:07:15;;;;;;;0.10;0.10;;;0.70;99.90;226.50;231333.00;;;;4997068;28;20220;-72
2021/12/09 06:09:43;;;;;;;0.15;0.15;;;0.70;99.90;226.50;231333.00;;;;4996973;28;20227;-75
2021/12/09 06:12:11;;;;;;;0.20;0.20;;;0.80;99.90;226.50;231333.00;;;;5002130;28;20220;-74
2021/12/09 06:14:40;;;;;;;0.10;0.10;;;0.70;99.90;226.50;231333.00;;;;5000822;28;20199;-74
2021/12/09 06:17:10;;;;;;;0.10;0.10;;;0.80;99.90;226.50;231333.00;;;;5002471;28;20211;-76
2021/12/09 06:19:38;;;;;;;0.10;0.10;;;0.80;99.90;226.50;231333.00;;;;5001982;28;20197;-76
2021/12/09 06:22:06;;;;;;;0.20;0.20;;;0.90;99.90;226.50;231333.00;;;;5003294;28;20619;-76
2021/12/09 06:24:34;;;;;;;0.10;0.10;;;0.80;99.90;226.50;231333.00;;;;5001372;28;20665;-76
2021/12/09 06:27:03;;;;;;;0.20;0.20;;;0.90;99.90;226.50;231333.00;;;;5002824;28;20672;-76
2021/12/09 06:29:32;;;;;;;0.20;0.20;;;0.90;99.90;226.50;231333.00;;;;5001190;28;20195;-76
2021/12/09 06:32:01;;;;;;;0.15;0.15;;;0.90;99.90;226.50;231333.00;;;;5000084;28;20246;-76
2021/12/09 06:34:30;;;;;;;0.10;0.10;;;1.00;99.90;226.50;231333.00;;;;5001754;28;20193;-76
2021/12/09 06:36:58;;;;;;;0.10;0.10;;;1.10;99.90;226.50;231333.00;;;;5001540;28;20320;-76
2021/12/09 06:39:26;;;;;;;0.10;0.10;;;1.10;99.90;226.50;231333.00;;;;5001553;28;20255;-77
2021/12/09 06:41:54;;;;;;;0.15;0.15;;;1.10;99.90;226.50;231333.00;;;;4998831;28;20701;-77
2021/12/09 06:44:22;;;;;;;0.10;0.10;;;1.10;99.90;226.50;231333.00;;;;4999889;28;20278;-77
2021/12/09 06:46:50;;;;;;;0.10;0.10;;;1.10;99.90;226.50;231333.00;;;;5000215;28;20188;-77
2021/12/09 06:49:19;;;;;;;0.10;0.10;;;1.10;99.90;226.50;231333.00;;;;5000905;28;20203;-77
2021/12/09 06:51:48;;;;;;;0.17;0.17;;;1.00;99.90;226.50;231333.00;;;;5001109;28;20220;-77
2021/12/09 06:54:16;;;;;;;0.10;0.10;;;1.10;99.90;226.50;231333.00;;;;5002754;28;20727;-77
2021/12/09 06:56:44;;;;;;;0.10;0.10;;;1.10;99.90;226.50;231333.00;;;;5016753;28;20195;-76
2021/12/09 06:59:12;;;;;;;0.20;0.20;;;1.10;99.90;226.50;231333.00;;;;5002552;28;20280;-77
2021/12/09 07:01:40;;;;;;;0.20;0.20;;;1.10;99.90;226.50;231333.00;;;;5002471;28;20212;-77
2021/12/09 07:04:09;;;;;;;0.20;0.20;;;1.20;99.90;226.50;231333.00;;;;5001387;28;20238;-77
2021/12/09 07:06:38;;;;;;;0.10;0.10;;;1.10;99.90;226.50;231333.00;;;;5002274;28;20200;-77
2021/12/09 07:09:08;;;;;;;0.20;0.20;;;1.10;99.90;226.50;231333.00;;;;5008536;28;20195;-76
2021/12/09 07:11:44;;;;;;;0.10;0.10;;;1.30;99.90;226.50;231333.00;;;;5002987;28;20267;-77
2021/12/09 07:14:12;;;;;;;0.10;0.10;;;1.20;99.90;226.50;231333.00;;;;5016434;28;20610;-77
2021/12/09 07:16:40;;;;;;;0.10;0.10;;;1.30;99.90;226.50;231333.00;;;;5002158;28;20192;-77
2021/12/09 07:19:08;;;;;;;0.10;0.10;;;1.30;99.90;226.50;231333.00;;;;5001229;28;20362;-77
2021/12/09 07:21:37;;;;;;;0.10;0.10;;;1.30;99.90;226.50;158764.00;;;;5000455;28;21013;-77
2021/12/09 07:24:06;;;;;;;0.10;0.10;;;1.40;99.90;226.50;231333.00;;;;5001331;28;20693;-76
2021/12/09 07:26:35;;;;;;;0.10;0.10;;;1.40;99.90;226.50;231333.00;;;;4995542;28;20926;-76
2021/12/09 07:29:04;;;;;;;0.10;0.10;;;1.40;99.90;226.50;231333.00;;;;4996002;28;20250;-77
2021/12/09 07:31:32;;;;;;;0.10;0.10;;;1.30;99.90;226.50;231333.00;;;;5000376;28;20612;-76
2021/12/09 07:34:00;;;;;;;0.10;0.10;;;1.30;99.90;226.50;231333.00;;;;4999082;28;20219;-76
2021/12/09 07:36:29;;;;;;;0.10;0.10;;;1.40;99.90;226.50;231333.00;;;;4998292;28;20200;-76
2021/12/09 07:38:57;;;;;;;0.10;0.10;;;1.40;99.90;226.50;231333.00;;;;5000320;28;20200;-76
2021/12/09 07:41:27;;;;;;;0.20;0.20;;;1.40;99.90;226.50;231333.00;;;;5002824;28;20261;-77
2021/12/09 07:43:55;;;;;;;0.10;0.10;;;1.40;99.90;226.50;231333.00;;;;4999071;28;20232;-77
2021/12/09 07:46:24;;;;;;;0.10;0.10;;;1.40;99.90;226.50;231333.00;;;;5003563;28;20690;-77
2021/12/09 07:48:52;;;;;;;0.20;0.20;;;1.40;99.90;226.50;231333.00;;;;5001348;28;20188;-77
2021/12/09 07:51:20;;;;;;;0.10;0.10;;;1.50;99.90;226.50;231333.00;;;;5000971;28;20192;-77
2021/12/09 07:53:48;;;;;;;0.10;0.10;;;1.40;99.90;226.50;231333.00;;;;5002241;28;20211;-77
2021/12/09 07:56:16;;;;;;;0.03;0.03;;;1.50;99.90;226.50;231333.00;;;;5002963;28;20288;-77
2021/12/09 07:58:46;;;;;;;0.10;0.10;;;1.50;99.90;226.50;231333.00;;;;5017624;28;20192;-77
2021/12/09 08:01:14;;;;;;;0.10;0.10;;;1.50;99.90;226.50;231333.00;;;;5007400;28;20196;-77
2021/12/09 08:03:44;;;;;;;0.10;0.10;;;1.40;99.90;226.50;231333.00;;;;5008137;28;20328;-77
2021/12/09 08:06:14;;;;;;;0.10;0.10;;;1.40;99.90;226.50;231333.00;;;;5005436;28;20204;-77
2021/12/09 08:08:43;;;;;;;0.10;0.10;;;1.40;99.90;226.50;231333.00;;;;5009035;28;20672;-75
2021/12/09 08:11:12;;;;;;;0.10;0.10;;;1.50;99.90;226.50;231333.00;;;;5005793;28;20216;-75
2021/12/09 08:13:40;;;;;;;0.10;0.10;;;1.50;99.90;226.50;231333.00;;;;5007975;28;20223;-76
2021/12/09 08:16:09;;;;;;;0.10;0.10;;;1.50;99.90;226.50;231333.00;;;;5003764;28;20695;-76
2021/12/09 08:18:53;;;;;;;0.10;0.10;;;1.40;99.90;226.50;231333.00;;;;5006970;28;20204;-74
2021/12/09 08:21:23;;;;;;;0.10;0.10;;;1.40;99.90;226.50;231333.00;;;;5000118;28;20211;-76
2021/12/09 08:23:52;;;;;;;0.10;0.10;;;1.40;99.90;226.50;231333.00;;;;5001289;28;20267;-76
2021/12/09 08:26:21;;;;;;;0.10;0.10;;;1.50;99.90;226.50;231333.00;;;;5001866;28;20188;-76
2021/12/09 08:28:50;;;;;;;0.10;0.10;;;1.50;99.90;226.50;231333.00;;;;4999531;28;20191;-78
2021/12/09 08:31:20;;;;;;;0.10;0.10;;;1.50;99.90;226.50;231333.00;;;;5014510;28;20669;-76
2021/12/09 08:33:50;;;;;;;0.10;0.10;;;1.50;99.90;226.50;231333.00;;;;5001697;28;20199;-74
2021/12/09 08:36:38;;;;;;;0.10;0.10;;;1.40;99.90;226.50;231333.00;;;;4999661;28;20250;-73
2021/12/09 08:39:06;;;;;;;0.10;0.10;;;1.40;99.90;226.50;231333.00;;;;5013903;28;20204;-75
2021/12/09 08:41:34;;;;;;;0.20;0.20;;;1.40;99.90;226.50;231333.00;;;;4999770;28;20200;-75
2021/12/09 08:44:02;;;;;;;0.10;0.10;;;1.50;99.90;226.50;231333.00;;;;4995249;28;20220;-77
2021/12/09 08:46:32;;;;;;;0.10;0.10;;;1.50;99.90;226.50;231333.00;;;;5006566;28;20686;-75
2021/12/09 08:49:00;;;;;;;0.10;0.10;;;1.50;99.90;226.50;231333.00;;;;4999432;28;20211;-76
2021/12/09 08:51:29;;;;;;;0.10;0.10;;;1.60;99.90;226.50;231333.00;;;;5014713;28;20195;-76
2021/12/09 08:53:58;;;;;;;0.10;0.10;;;1.60;99.90;226.50;231333.00;;;;4998200;28;20212;-76
2021/12/09 08:56:27;;;;;;;0.10;0.10;;;1.50;99.90;226.50;231333.00;;;;5001796;28;20207;-76
2021/12/09 08:58:55;;;;;;;0.10;0.10;;;1.50;99.90;226.50;231333.00;;;;5004204;28;20218;-77
2021/12/09 09:01:23;;;;;;;0.10;0.10;;;1.50;99.90;226.50;231333.00;;;;4999186;28;20192;-76
2021/12/09 09:03:52;;;;;;;0.10;0.10;;;1.60;99.90;226.50;231333.00;;;;4999727;28;20196;-77
2021/12/09 09:06:20;;;;;;;0.10;0.10;;;1.60;99.90;226.50;231333.00;;;;4999745;28;20200;-76
2021/12/09 09:08:50;;;;;;;0.10;0.10;;;1.70;99.90;226.50;231333.00;;;;5002684;28;20629;-77
2021/12/09 09:11:19;;;;;;;0.10;0.10;;;1.90;99.90;226.50;231333.00;;;;5003836;28;20200;-77
2021/12/09 09:13:47;;;;;;;0.10;0.10;;;2.00;99.90;226.50;231333.00;;;;5001127;28;20203;-77
2021/12/09 09:16:15;;;;;;;0.10;0.10;;;2.00;99.90;226.50;231333.00;;;;5002139;28;20689;-77
2021/12/09 09:18:44;;;;;;;0.10;0.10;;;2.00;99.90;226.50;231333.00;;;;5002961;28;20200;-77
2021/12/09 09:21:13;;;;;;;0.10;0.10;;;2.00;99.90;226.50;231333.00;;;;5009488;28;20709;-76
2021/12/09 09:23:41;;;;;;;0.10;0.10;;;2.10;99.90;226.50;231333.00;;;;5008083;28;20231;-77
2021/12/09 09:26:09;;;;;;;0.10;0.10;;;2.10;99.90;226.50;231333.00;;;;5011156;28;20308;-75
2021/12/09 09:28:38;;;;;;;0.10;0.10;;;2.20;99.90;226.50;231333.00;;;;5026059;28;20210;-77
2021/12/09 09:31:08;;;;;;;0.17;0.17;;;2.20;99.90;226.50;231333.00;;;;5003645;28;20732;-78
2021/12/09 09:33:36;;;;;;;0.10;0.10;;;2.10;99.90;226.50;231333.00;;;;5003464;28;20620;-76
2021/12/09 09:36:05;;;;;;;0.10;0.10;;;2.10;99.90;226.50;231333.00;;;;5001376;28;20215;-77
2021/12/09 09:38:35;;;;;;;0.10;0.10;;;2.20;99.90;226.50;231333.00;;;;5001922;28;20188;-73
2021/12/09 09:41:09;;;;;;;0.10;0.10;;;2.10;99.90;226.50;231333.00;;;;5007637;28;20188;-74
2021/12/09 09:43:56;;;;;;;0.10;0.10;;;2.20;99.90;226.50;231333.00;;;;5005015;28;20208;-76
2021/12/09 09:46:27;;;;;;;0.10;0.10;;;2.30;99.90;226.50;231333.00;;;;5001822;28;20731;-74
2021/12/09 09:48:59;;;;;;;0.10;0.10;;;2.30;99.90;226.50;231333.00;;;;4999405;28;20204;-79
2021/12/09 09:51:31;;;;;;;0.10;0.10;;;2.30;99.90;226.50;231333.00;;;;4998719;28;20889;-75
2021/12/09 09:54:01;;;;;;;0.10;0.10;;;2.20;99.90;226.50;231333.00;;;;5000194;28;20234;-75
2021/12/09 09:56:32;;;;;;;0.10;0.10;;;2.10;99.90;226.50;231333.00;;;;5001320;28;20200;-75
2021/12/09 09:59:05;;;;;;;0.10;0.10;;;2.10;99.90;226.50;231333.00;;;;4998173;28;20201;-75
2021/12/09 10:01:37;;;;;;;0.13;0.13;;;2.10;99.90;226.50;231333.00;;;;5018048;28;20246;-76
2021/12/09 10:04:14;;;;;;;0.10;0.10;;;2.00;99.90;226.50;231333.00;;;;5002129;28;20688;-76
2021/12/09 10:06:45;;;;;;;0.10;0.10;;;2.00;99.90;226.50;231333.00;;;;5003147;28;20211;-77
2021/12/09 10:09:17;;;;;;;0.10;0.10;;;2.10;99.90;226.50;231333.00;;;;5003652;28;20558;-76
2021/12/09 10:11:46;;;;;;;0.10;0.10;;;2.10;99.90;226.50;231333.00;;;;5002783;28;20211;-75
2021/12/09 10:14:18;;;;;;;0.10;0.10;;;2.10;99.90;226.50;231333.00;;;;5000066;28;20204;-76
2021/12/09 10:17:04;;;;;;;0.10;0.10;;;2.20;99.90;226.50;231333.00;;;;5002677;28;20922;-73
2021/12/09 10:19:34;;;;;;;0.10;0.10;;;2.20;99.90;226.50;231333.00;;;;5001866;28;20219;-76
2021/12/09 10:22:12;;;;;;;0.10;0.10;;;2.20;99.90;226.50;231333.00;;;;5002089;28;20266;-77
2021/12/09 10:24:43;;;;;;;0.10;0.10;;;2.20;99.90;226.50;231333.00;;;;5001706;28;20203;-77
2021/12/09 10:27:21;;;;;;;0.10;0.10;;;2.20;99.90;226.50;231333.00;;;;5001490;28;20198;-76
2021/12/09 10:29:50;;;;;;;0.10;0.10;;;2.20;99.90;226.50;231333.00;;;;4998496;28;20199;-77
2021/12/09 10:32:24;;;;;;;0.10;0.10;;;2.20;99.90;226.50;231333.00;;;;5009223;28;20231;-75
2021/12/09 10:34:52;;;;;;;0.13;0.13;;;2.20;99.90;226.50;231333.00;;;;5005399;28;20803;-74
2021/12/09 10:37:22;;;;;;;0.20;0.20;;;2.20;99.90;226.50;231333.00;;;;5011992;28;20782;-76
2021/12/09 10:39:56;;;;;;;0.10;0.10;;;2.20;99.90;226.50;231333.00;;;;5000894;28;20643;-76
2021/12/09 10:42:27;;;;;;;0.10;0.10;;;2.20;99.90;226.50;231333.00;;;;5001490;28;20220;-75
2021/12/09 10:44:59;;;;;;;0.10;0.10;;;2.10;99.90;226.50;231333.00;;;;4997064;28;20220;-75
2021/12/09 10:47:47;;;;;;;0.10;0.10;;;2.10;99.90;226.50;231333.00;;;;5000601;28;20195;-75
2021/12/09 10:50:27;;;;;;;0.10;0.10;;;2.10;99.90;226.50;231333.00;;;;5015261;28;20262;-75
2021/12/09 10:53:04;;;;;;;0.10;0.10;;;2.10;99.90;226.50;231333.00;;;;5002941;28;20279;-75
2021/12/09 10:55:36;;;;;;;0.10;0.10;;;2.00;99.90;226.50;231333.00;;;;5002063;28;20196;-75
2021/12/09 10:58:08;;;;;;;0.10;0.10;;;2.10;99.90;226.50;231333.00;;;;5000051;28;20682;-75
2021/12/09 11:00:43;;;;;;;0.10;0.10;;;2.10;99.90;226.50;231333.00;;;;5013620;28;20247;-76